KSTSKSMO

Guest
Details From KSTS - Charles M. Schulz - Sonoma Co
To KSMO - SANTA MONICA MUNI
Flight Number -
Tags generated
Created
Modified
Stats Distance 343 nm / 636 km
Max Altitude 17,000 ft / 5,182 m
Waypoints 5
Social Downloads 4
Likes 0
Share VATSIM

Download

Looking for another format? Having issues loading an existing format? Contact us
Advertisement - Login to hide

Notes

Basic altitude profile: - Ascent Rate: 2500ft/min - Ascent Speed: 250kts - Cruise Altitude: 25ft - Cruise Speed: 330kts - Descent Rate: 1500ft/min - Descent Speed: 250kts

Route

KSTS OAK J1 DERBB KSMO

ID Type Via Altitude Latitude Longitude Leg Dist Tot Dist Heading (true) Name
O KSTS APT - 0 ft / 0 m 38.50898˚ -122.81292˚ - 0 nm - Charles M. Schulz - Sonoma Co
OAK VOR - 0 ft / 0 m 37.72592˚ -122.22358˚ 54 nm 54 nm 149° / 150° OAKLAND VORTAC
AVE VOR J1 (AWY-HI) 17,000 ft / 5,182 m 35.64697˚ -119.97861˚ 165 nm 219 nm 138° / 140° AVENAL VORTAC
DERBB FIX J1 (AWY-HI) 17,000 ft / 5,182 m 35.25590˚ -119.64145˚ 28 nm 248 nm 145° / 145° -
O KSMO APT - 0 ft / 0 m 34.01585˚ -118.45133˚ 94 nm 343 nm 141° / 142° SANTA MONICA MUNI

Altitude Profile

Advertisement - Login to hide

Weather


0- 5 10 15 20 25 30 35+ Temperature / ° C

Clouds and Precipitation
Forecast for 2017-12-14 00:00 UTC. Updated 2 hours ago

Ground ~20,000 ft ~40,000 ft Winds

KSTS

Details ICAO KSTS (STS)
Name Charles M. Schulz - Sonoma Co
Region United States
Timezone America/Los_Angeles (UTC-8.0)
Stats Elevation 128 ft / 39 m (AMSL)
Location 38.508979° -122.812922°
Runways 2
Magnetic Variation 13.724° E

METAR

KSTS 140053Z 17003KT 10SM SCT200 13/04 A3005 RMK AO2 SLP172 T01280044

Decode

TAF

KSTS 132337Z 1400/1424 VRB03KT P6SM FEW250 FM140500 00000KT 2SM BR FEW250 FM140700 00000KT 1/2SM FG VV002 FM141300 VRB03KT P6SM SKC

Decode

Departure Runways

ID Width Length Bearing (true) Bearing (mag) Surface Threshold Offset Overrun Length
01 98 ft / 30 m 5,008 ft / 1,527 m 29.05° 15.33° Asphalt 0 ft / 0 m 0 ft / 0 m
14 151 ft / 46 m 5,122 ft / 1,561 m 157.28° 143.56° Asphalt 0 ft / 0 m 200 ft / 61 m
19 98 ft / 30 m 5,008 ft / 1,527 m 209.05° 195.33° Asphalt 0 ft / 0 m 0 ft / 0 m
32 151 ft / 46 m 5,122 ft / 1,561 m 337.28° 323.56° Asphalt 0 ft / 0 m 200 ft / 61 m

KSMO

Details ICAO KSMO (SMO)
Name SANTA MONICA MUNI
Region United States
Timezone America/Los_Angeles (UTC-8.0)
Stats Elevation 177 ft / 54 m (AMSL)
Location 34.015847° -118.451329°
Runways 1
Magnetic Variation 12.029° E

METAR

KSMO 140051Z 20004KT 10SM CLR 18/09 A2994 RMK AO2 SLP136 T01780089

Decode

TAF

TAF KSMO 132330Z 1400/1424 23007KT P6SM SKC FM140300 VRB03KT P6SM SKC FM142100 23007KT P6SM SKC

Decode

Destination Runways

ID Width Length Bearing (true) Bearing (mag) Surface Threshold Offset Overrun Length
03 151 ft / 46 m 4,978 ft / 1,517 m 44.45° 32.42° Asphalt 0 ft / 0 m 0 ft / 0 m
21 151 ft / 46 m 4,978 ft / 1,517 m 224.46° 212.43° Asphalt 0 ft / 0 m 0 ft / 0 m